Terminal Aerodrome Forecast
Issued by NWS North Platte, NE

Home | Current Version | Previous Version | Text Only | Print | Product List | Glossary On
Versions: 1 2 3 4 5 6 7 8 9 10 11 12 13 14 15 16 17 18 19 20 21 22 23 24
000
FTUS43 KLBF 292320
TAFLBF
TAF
KLBF 292320Z 3000/3024 02012KT P6SM OVC025
     FM300300 02008KT P6SM OVC020
     FM300600 36006KT P6SM BKN015
     FM300800 35007KT P6SM SCT015
     FM301900 02006KT P6SM SCT150
     FM302200 05006KT P6SM FEW200=

USA.gov is the U.S. government's official web portal to all federal, state and local government web resources and services.